Terminal Aerodrome Forecast
Issued by NWS

Home | Current Version | Previous Version | Text Only | Print | Product List | Glossary On
Versions: 1 2 3 4 5 6 7 8 9 10 11 12 13 14 15 16 17 18
000
FTUS43 KPAH 241720
TAFOWB
TAF
KOWB 241720Z 2418/2518 20018G28KT P6SM BKN040
      TEMPO 2422/2501 5SM -TSRA BKN020CB
     FM250300 28012G20KT P6SM SCT030 BKN100
     FM250700 29012G22KT P6SM BKN035=

USA.gov is the U.S. government's official web portal to all federal, state and local government web resources and services.